Time;durP1;ratioP1;P1;durP2;ratioP2;P2;SDS_P1;SDS_P2;PMS_P1;PMS_P2;Temp;Humidity;BMP_temperature;BMP_pressure;BME280_temperature;BME280_humidity;BME280_pressure;Samples;Min_cycle;Max_cycle;Signal;HPM_P1;HPM_P2
2022/06/26 00:02:25;;;;;;;0.90;0.90;;;21.20;99.90;;;;;;5034908;28;20032;-48
2022/06/26 00:04:50;;;;;;;1.58;0.93;;;21.10;99.90;;;;;;5034976;28;20049;-48
2022/06/26 00:07:16;;;;;;;1.60;0.70;;;21.00;99.90;;;;;;5033944;28;20037;-49
2022/06/26 00:09:43;;;;;;;2.50;1.05;;;21.00;99.90;;;;;;5034611;28;20393;-45
2022/06/26 00:12:09;;;;;;;2.85;0.80;;;20.90;99.90;;;;;;5034882;28;20424;-45
2022/06/26 00:14:35;;;;;;;2.95;0.80;;;20.90;99.90;;;;;;5034553;28;20580;-49
2022/06/26 00:17:00;;;;;;;4.63;0.77;;;20.70;99.90;;;;;;5032946;28;20100;-49
2022/06/26 00:19:26;;;;;;;3.50;0.80;;;20.70;99.90;;;;;;5034522;28;20026;-51
2022/06/26 00:21:51;;;;;;;1.25;0.70;;;20.70;99.90;;;;;;5034745;28;20033;-50
2022/06/26 00:24:17;;;;;;;0.82;0.80;;;20.60;99.90;;;;;;5034508;28;20030;-52
2022/06/26 00:26:43;;;;;;;2.00;0.73;;;20.60;99.90;;;;;;5033963;28;20037;-50
2022/06/26 00:29:08;;;;;;;0.82;0.80;;;20.60;99.90;;;;;;5033889;28;20384;-48
2022/06/26 00:31:34;;;;;;;3.90;0.77;;;20.70;99.90;;;;;;5034525;28;20643;-48
2022/06/26 00:34:00;;;;;;;2.95;0.90;;;20.70;99.90;;;;;;5034356;28;20397;-49
2022/06/26 00:36:26;;;;;;;0.75;0.70;;;20.70;99.90;;;;;;5034138;28;20076;-51
2022/06/26 00:38:52;;;;;;;0.70;0.65;;;20.80;99.90;;;;;;5033297;28;20029;-49
2022/06/26 00:41:18;;;;;;;0.80;0.80;;;20.70;99.90;;;;;;5034101;28;20025;-48
2022/06/26 00:43:44;;;;;;;2.58;0.60;;;20.70;99.90;;;;;;5034120;28;20026;-48
2022/06/26 00:46:10;;;;;;;62.17;48.95;;;20.70;99.90;;;;;;5034037;28;20072;-48
2022/06/26 00:48:36;;;;;;;162.65;115.22;;;20.80;99.90;;;;;;5055830;22;20509;-52
2022/06/26 00:51:02;;;;;;;10.60;7.72;;;20.90;99.90;;;;;;5034037;28;20104;-50
2022/06/26 00:53:27;;;;;;;3.00;0.90;;;20.90;99.90;;;;;;5032678;28;20557;-51
2022/06/26 00:55:53;;;;;;;7.25;0.90;;;20.90;99.90;;;;;;5038105;28;20028;-51
2022/06/26 00:58:18;;;;;;;1.15;0.80;;;20.80;99.90;;;;;;5035074;28;20024;-51
2022/06/26 01:00:44;;;;;;;4.18;1.00;;;20.80;99.90;;;;;;5053902;28;20036;-57
2022/06/26 01:03:10;;;;;;;4.57;0.70;;;20.70;99.90;;;;;;5038528;28;20033;-52
2022/06/26 01:05:35;;;;;;;1.27;0.85;;;20.70;99.90;;;;;;5035186;28;20477;-53
2022/06/26 01:08:01;;;;;;;0.70;0.70;;;20.70;99.90;;;;;;5051814;28;20020;-54
2022/06/26 01:10:27;;;;;;;3.58;0.80;;;20.70;99.90;;;;;;5053135;28;20029;-52
2022/06/26 01:12:53;;;;;;;1.65;0.80;;;20.70;99.90;;;;;;5053166;28;20070;-55
2022/06/26 01:15:20;;;;;;;0.70;0.70;;;20.60;99.90;;;;;;5052589;28;20104;-50
2022/06/26 01:17:46;;;;;;;0.77;0.77;;;20.50;99.90;;;;;;5052413;28;20495;-53
2022/06/26 01:20:11;;;;;;;0.70;0.70;;;20.50;99.90;;;;;;5052923;28;20040;-53
2022/06/26 01:22:37;;;;;;;1.35;0.65;;;20.50;99.90;;;;;;5053479;28;20029;-52
2022/06/26 01:25:03;;;;;;;2.22;1.02;;;20.40;99.90;;;;;;5034909;28;20265;-52
2022/06/26 01:27:29;;;;;;;3.30;0.70;;;20.40;99.90;;;;;;5052164;28;20024;-53
2022/06/26 01:29:54;;;;;;;1.90;0.98;;;20.30;99.90;;;;;;5053185;28;20388;-52
2022/06/26 01:32:20;;;;;;;3.45;0.70;;;20.30;99.90;;;;;;5053061;28;20452;-56
2022/06/26 01:34:45;;;;;;;1.20;0.85;;;20.20;99.90;;;;;;5052891;28;20052;-52
2022/06/26 01:37:11;;;;;;;3.70;1.30;;;20.20;99.90;;;;;;5051793;28;20495;-54
2022/06/26 01:39:36;;;;;;;1.60;1.50;;;20.20;99.90;;;;;;5053040;28;20116;-54
2022/06/26 01:42:02;;;;;;;2.47;1.13;;;20.10;99.90;;;;;;5052597;28;20099;-56
2022/06/26 01:44:28;;;;;;;6.07;1.10;;;20.00;99.90;;;;;;5052492;28;20029;-51
2022/06/26 01:46:53;;;;;;;6.60;4.53;;;19.90;99.90;;;;;;5051363;28;20095;-54
2022/06/26 01:49:19;;;;;;;3.63;1.63;;;19.90;99.90;;;;;;5052477;28;20078;-50
2022/06/26 01:51:44;;;;;;;2.05;0.90;;;20.00;99.90;;;;;;5052237;28;20032;-55
2022/06/26 01:54:10;;;;;;;1.08;0.90;;;20.00;99.90;;;;;;5052380;28;20504;-50
2022/06/26 01:56:36;;;;;;;1.02;0.80;;;19.90;99.90;;;;;;5034256;28;20025;-51
2022/06/26 01:59:01;;;;;;;1.88;0.98;;;20.00;99.90;;;;;;5033882;28;20507;-55
2022/06/26 02:01:27;;;;;;;2.33;0.88;;;19.90;99.90;;;;;;5052337;28;20409;-53
2022/06/26 02:03:52;;;;;;;4.47;0.85;;;20.00;99.90;;;;;;5052159;28;20040;-53
2022/06/26 02:06:18;;;;;;;2.90;0.75;;;19.90;99.90;;;;;;5051805;28;20064;-53
2022/06/26 02:08:43;;;;;;;3.50;1.30;;;19.90;99.90;;;;;;5050999;28;20543;-53
2022/06/26 02:13:55;;;;;;;2.80;1.02;;;19.80;99.90;;;;;;5052225;28;20031;-54
2022/06/26 02:16:23;;;;;;;0.82;0.82;;;19.70;99.90;;;;;;5052017;28;20021;-50
2022/06/26 02:18:51;;;;;;;7.07;1.13;;;19.70;99.90;;;;;;5050277;28;20021;-53
2022/06/26 02:21:20;;;;;;;0.90;0.88;;;19.70;99.90;;;;;;5051828;28;20073;-53
2022/06/26 02:23:47;;;;;;;1.25;1.15;;;19.70;99.90;;;;;;5051712;28;20036;-51
2022/06/26 02:26:14;;;;;;;1.58;1.27;;;19.70;99.90;;;;;;5051502;28;20028;-53
2022/06/26 02:28:40;;;;;;;2.20;1.45;;;19.70;99.90;;;;;;5051111;28;20025;-51
2022/06/26 02:31:06;;;;;;;4.13;1.13;;;19.60;99.90;;;;;;5051595;28;20397;-52
2022/06/26 02:33:40;;;;;;;0.90;0.90;;;19.60;99.90;;;;;;5052046;28;20029;-53
2022/06/26 02:36:07;;;;;;;0.65;0.65;;;19.70;99.90;;;;;;5051528;28;20025;-50
2022/06/26 02:38:34;;;;;;;1.95;1.20;;;19.60;99.90;;;;;;5050860;28;20591;-53
2022/06/26 02:41:00;;;;;;;1.70;0.80;;;19.60;99.90;;;;;;5033584;28;20481;-51
2022/06/26 02:43:26;;;;;;;1.50;1.00;;;19.70;99.90;;;;;;5033642;28;20477;-50
2022/06/26 02:45:53;;;;;;;1.27;0.90;;;19.70;99.90;;;;;;5051225;28;21198;-51
2022/06/26 02:48:20;;;;;;;2.58;0.73;;;19.70;99.90;;;;;;5050690;28;20342;-50
2022/06/26 02:50:47;;;;;;;1.90;1.02;;;19.70;99.90;;;;;;5051444;28;20056;-51
2022/06/26 02:53:13;;;;;;;2.15;0.80;;;19.70;99.90;;;;;;5051655;28;20056;-51
2022/06/26 02:55:38;;;;;;;2.95;0.95;;;19.80;99.90;;;;;;5051278;28;20493;-54
2022/06/26 02:58:04;;;;;;;0.90;0.90;;;19.70;99.90;;;;;;5050364;28;20078;-55
2022/06/26 03:00:30;;;;;;;1.30;0.90;;;19.70;99.90;;;;;;5051398;28;20028;-52
2022/06/26 03:02:55;;;;;;;1.20;1.10;;;19.70;99.90;;;;;;5033341;28;20377;-51
2022/06/26 03:05:21;;;;;;;2.08;1.02;;;19.60;99.90;;;;;;5051114;28;20476;-53
2022/06/26 03:07:46;;;;;;;1.38;1.02;;;19.60;99.90;;;;;;5032295;28;20025;-53
2022/06/26 03:10:12;;;;;;;1.10;0.80;;;19.60;99.90;;;;;;5051291;28;20104;-54
2022/06/26 03:12:47;;;;;;;0.95;0.88;;;19.60;99.90;;;;;;5051239;28;20028;-51
2022/06/26 03:15:13;;;;;;;3.10;0.77;;;19.60;99.90;;;;;;5051244;28;20031;-51
2022/06/26 03:17:40;;;;;;;1.10;0.90;;;19.60;99.90;;;;;;5050575;28;20021;-50
2022/06/26 03:20:08;;;;;;;0.82;0.80;;;19.70;99.90;;;;;;5051477;28;20067;-55
2022/06/26 03:22:33;;;;;;;2.92;1.00;;;19.70;99.90;;;;;;5051002;28;20025;-52
2022/06/26 03:24:59;;;;;;;1.65;0.90;;;19.70;99.90;;;;;;5051544;28;20032;-53
2022/06/26 03:27:24;;;;;;;1.75;1.42;;;19.70;99.90;;;;;;5050024;28;20024;-50
2022/06/26 03:29:50;;;;;;;2.88;1.10;;;19.70;99.90;;;;;;5051309;28;20059;-51
2022/06/26 03:32:15;;;;;;;4.05;0.90;;;19.70;99.90;;;;;;5055335;28;20107;-55
2022/06/26 03:34:41;;;;;;;5.38;1.20;;;19.70;99.90;;;;;;5037008;28;20461;-50
2022/06/26 03:37:06;;;;;;;0.80;0.80;;;19.70;99.90;;;;;;5035365;28;20493;-49
2022/06/26 03:39:32;;;;;;;0.80;0.80;;;19.60;99.90;;;;;;5032404;28;20041;-52
2022/06/26 03:41:58;;;;;;;1.17;0.85;;;19.70;99.90;;;;;;5016204;28;20030;-50
2022/06/26 03:44:28;;;;;;;0.90;0.90;;;19.70;99.90;;;;;;5030566;28;20037;-52
2022/06/26 03:46:54;;;;;;;1.75;1.15;;;19.70;99.90;;;;;;5033929;28;20045;-52
2022/06/26 03:49:21;;;;;;;1.73;1.10;;;19.70;99.90;;;;;;5034680;28;20040;-52
2022/06/26 03:51:47;;;;;;;1.20;1.10;;;19.60;99.90;;;;;;5034142;28;20421;-53
2022/06/26 03:54:13;;;;;;;3.30;0.85;;;19.60;99.90;;;;;;5034145;28;20110;-50
2022/06/26 03:56:39;;;;;;;3.60;1.20;;;19.50;99.90;;;;;;5011185;28;20052;-51
2022/06/26 03:59:05;;;;;;;1.30;1.20;;;19.50;99.90;;;;;;5014129;28;20497;-56
2022/06/26 04:01:31;;;;;;;1.95;1.17;;;19.50;99.90;;;;;;5026906;28;20028;-55
2022/06/26 04:03:56;;;;;;;1.02;1.02;;;19.50;99.90;;;;;;5034530;28;20033;-55
2022/06/26 04:06:22;;;;;;;1.30;0.98;;;19.40;99.90;;;;;;5034458;28;20025;-55
2022/06/26 04:08:47;;;;;;;0.80;0.80;;;19.40;99.90;;;;;;5016060;28;20022;-52
2022/06/26 04:11:14;;;;;;;1.77;1.00;;;19.50;99.90;;;;;;5018708;28;20512;-53
2022/06/26 04:13:40;;;;;;;1.67;1.17;;;19.50;99.90;;;;;;5034613;28;20504;-53
2022/06/26 04:16:05;;;;;;;0.93;0.93;;;19.60;99.90;;;;;;5034546;28;20034;-53
2022/06/26 04:18:31;;;;;;;5.88;1.20;;;19.60;99.90;;;;;;5033488;28;20393;-49
2022/06/26 04:20:56;;;;;;;1.45;1.33;;;19.70;99.90;;;;;;5034559;28;20064;-51
2022/06/26 04:23:22;;;;;;;3.90;1.20;;;19.70;99.90;;;;;;5033956;28;20037;-54
2022/06/26 04:25:47;;;;;;;1.15;1.10;;;19.60;99.90;;;;;;5033958;28;20167;-54
2022/06/26 04:28:13;;;;;;;1.42;1.10;;;19.60;99.90;;;;;;5033333;28;20026;-50
2022/06/26 04:30:38;;;;;;;1.95;1.00;;;19.60;99.90;;;;;;5016404;28;20026;-54
2022/06/26 04:33:07;;;;;;;1.30;1.30;;;19.50;99.90;;;;;;5034195;28;20105;-52
2022/06/26 04:35:33;;;;;;;1.25;1.10;;;19.50;99.90;;;;;;5033975;28;20100;-52
2022/06/26 04:37:59;;;;;;;1.98;0.80;;;19.50;99.90;;;;;;5015536;28;20140;-49
2022/06/26 04:40:24;;;;;;;1.85;1.20;;;19.50;99.90;;;;;;5033859;28;20037;-54
2022/06/26 04:42:50;;;;;;;8.27;1.58;;;19.50;99.90;;;;;;5032993;28;20045;-54
2022/06/26 04:45:16;;;;;;;1.10;1.10;;;19.60;99.90;;;;;;5033618;28;20061;-53
2022/06/26 04:47:41;;;;;;;1.10;1.10;;;19.60;99.90;;;;;;5032826;28;20409;-53
2022/06/26 04:50:08;;;;;;;1.08;1.08;;;19.60;99.90;;;;;;5015825;28;20014;-54
2022/06/26 04:52:33;;;;;;;2.20;1.33;;;19.60;99.90;;;;;;5033735;28;20081;-55
2022/06/26 04:54:59;;;;;;;3.88;1.10;;;19.70;99.90;;;;;;5033486;28;20489;-53
2022/06/26 04:57:27;;;;;;;1.20;1.10;;;19.90;99.90;;;;;;5032659;28;20722;-52
2022/06/26 04:59:53;;;;;;;5.55;1.63;;;19.90;99.90;;;;;;5033284;28;20558;-50
2022/06/26 05:02:19;;;;;;;2.42;1.55;;;20.00;99.90;;;;;;5033472;28;20492;-51
2022/06/26 05:04:44;;;;;;;2.88;1.00;;;20.00;99.90;;;;;;5033337;28;20029;-49
2022/06/26 05:07:10;;;;;;;2.10;1.38;;;20.20;99.90;;;;;;5032377;28;20030;-50
2022/06/26 05:09:36;;;;;;;4.22;1.10;;;20.40;99.90;;;;;;5031754;28;20021;-51
2022/06/26 05:12:01;;;;;;;1.42;1.10;;;20.60;99.90;;;;;;5033363;28;20076;-50
2022/06/26 05:14:27;;;;;;;2.97;1.13;;;20.70;99.90;;;;;;5032305;28;20086;-50
2022/06/26 05:16:52;;;;;;;5.20;1.10;;;20.80;99.90;;;;;;5014550;28;20022;-49
2022/06/26 05:19:18;;;;;;;2.13;0.90;;;20.90;99.90;;;;;;5032961;28;20037;-54
2022/06/26 05:21:44;;;;;;;1.70;1.00;;;20.90;99.90;;;;;;5033134;28;20033;-50
2022/06/26 05:24:09;;;;;;;3.75;1.00;;;21.00;99.90;;;;;;5032958;28;20025;-50
2022/06/26 05:26:35;;;;;;;1.05;0.98;;;21.10;99.90;;;;;;5032799;28;20029;-50
2022/06/26 05:29:01;;;;;;;1.13;1.02;;;21.40;99.90;;;;;;5032094;28;20018;-55
2022/06/26 05:31:27;;;;;;;1.52;1.05;;;21.80;99.90;;;;;;5032890;28;20029;-55
2022/06/26 05:33:53;;;;;;;2.05;1.17;;;22.10;99.90;;;;;;5033033;28;20433;-54
2022/06/26 05:36:19;;;;;;;3.88;1.40;;;22.10;99.90;;;;;;5032707;28;20048;-54
2022/06/26 05:38:45;;;;;;;1.00;0.93;;;22.20;99.90;;;;;;5030625;28;20033;-52
2022/06/26 05:41:10;;;;;;;0.70;0.70;;;22.40;99.90;;;;;;5032669;28;20094;-52
2022/06/26 05:43:36;;;;;;;3.45;1.00;;;22.50;99.90;;;;;;5032952;28;20041;-49
2022/06/26 05:46:01;;;;;;;3.08;1.00;;;22.50;99.90;;;;;;5032545;28;20033;-53
2022/06/26 05:48:28;;;;;;;1.45;1.08;;;22.40;99.90;;;;;;5030536;28;20061;-54
2022/06/26 05:50:54;;;;;;;0.80;0.80;;;22.20;99.90;;;;;;5032638;28;20120;-53
2022/06/26 05:53:21;;;;;;;0.90;0.90;;;22.60;99.90;;;;;;5032223;28;20032;-51
2022/06/26 05:55:47;;;;;;;1.05;0.77;;;22.90;99.90;;;;;;5030906;28;20029;-53
2022/06/26 05:58:12;;;;;;;1.70;0.95;;;22.80;99.90;;;;;;5031778;28;20353;-51
2022/06/26 06:00:39;;;;;;;3.03;0.85;;;23.50;99.90;;;;;;5032177;28;20037;-51
2022/06/26 06:03:05;;;;;;;2.00;0.50;;;24.90;99.90;;;;;;5032387;28;20095;-52
2022/06/26 06:05:31;;;;;;;1.27;1.17;;;26.10;99.90;;;;;;5032206;28;20081;-52
2022/06/26 06:07:57;;;;;;;1.30;0.80;;;27.30;98.90;;;;;;5031282;28;20018;-53
2022/06/26 06:10:24;;;;;;;0.93;0.73;;;28.50;96.90;;;;;;5014494;28;20025;-56
2022/06/26 06:12:51;;;;;;;0.80;0.80;;;29.10;95.00;;;;;;5032299;28;20371;-51
2022/06/26 06:15:17;;;;;;;1.88;0.60;;;29.80;93.90;;;;;;5032195;28;20021;-53
2022/06/26 06:17:44;;;;;;;12.05;1.10;;;30.20;92.80;;;;;;5031494;28;20314;-51
2022/06/26 06:20:13;;;;;;;2.83;1.00;;;30.10;92.40;;;;;;5031863;28;20044;-53
2022/06/26 06:22:40;;;;;;;0.80;0.80;;;30.00;92.20;;;;;;5032031;28;20151;-49
2022/06/26 06:25:07;;;;;;;0.95;0.70;;;30.40;91.80;;;;;;5031626;28;20485;-54
2022/06/26 06:27:33;;;;;;;1.20;0.68;;;31.60;90.60;;;;;;5030629;28;20036;-51
2022/06/26 06:29:58;;;;;;;2.58;1.00;;;32.10;87.80;;;;;;5031565;28;20029;-53
2022/06/26 06:32:23;;;;;;;0.45;0.45;;;32.60;87.20;;;;;;5031842;28;20026;-53
2022/06/26 06:34:49;;;;;;;1.63;0.60;;;32.90;84.70;;;;;;5031765;28;20575;-55
2022/06/26 06:37:15;;;;;;;0.88;0.50;;;33.40;84.60;;;;;;5030721;28;20061;-54
2022/06/26 06:39:40;;;;;;;1.45;0.75;;;33.60;82.30;;;;;;5031732;28;20521;-51
2022/06/26 06:42:06;;;;;;;4.10;0.93;;;32.70;82.90;;;;;;5031813;28;20496;-54
2022/06/26 06:44:31;;;;;;;1.92;0.68;;;31.70;85.20;;;;;;5031739;28;20032;-53
2022/06/26 06:47:04;;;;;;;0.70;0.70;;;31.30;86.70;;;;;;5031077;28;20112;-53
2022/06/26 06:49:29;;;;;;;4.63;1.00;;;31.40;86.00;;;;;;5031284;28;20025;-52
2022/06/26 06:51:55;;;;;;;0.85;0.73;;;31.80;85.10;;;;;;5013812;28;20022;-50
2022/06/26 06:54:20;;;;;;;1.42;0.65;;;32.10;83.90;;;;;;5031515;28;20048;-55
2022/06/26 06:56:46;;;;;;;2.30;0.70;;;32.80;82.30;;;;;;5029351;28;20034;-55
2022/06/26 06:59:12;;;;;;;6.85;0.93;;;33.20;80.40;;;;;;5031152;28;20400;-53
2022/06/26 07:01:37;;;;;;;1.00;0.60;;;33.40;79.70;;;;;;5031679;28;20519;-53
2022/06/26 07:04:03;;;;;;;1.05;0.60;;;33.70;78.50;;;;;;5031405;28;20025;-52
2022/06/26 07:06:29;;;;;;;1.48;0.70;;;34.10;77.00;;;;;;5031384;28;20037;-54
2022/06/26 07:08:54;;;;;;;1.00;0.60;;;34.20;77.00;;;;;;5029752;28;20025;-56
2022/06/26 07:11:20;;;;;;;0.40;0.40;;;34.60;76.40;;;;;;5031238;28;20026;-53
2022/06/26 07:13:45;;;;;;;0.50;0.50;;;35.00;74.10;;;;;;5031072;28;20032;-52
2022/06/26 07:16:11;;;;;;;4.22;0.80;;;35.10;73.80;;;;;;5031344;28;20025;-52
2022/06/26 07:18:37;;;;;;;1.25;0.57;;;35.30;73.40;;;;;;5030172;28;20044;-51
2022/06/26 07:21:04;;;;;;;1.75;0.90;;;35.80;72.30;;;;;;5031378;28;20089;-55
2022/06/26 07:23:29;;;;;;;2.15;0.90;;;36.30;71.40;;;;;;5031303;28;20029;-54
2022/06/26 07:25:58;;;;;;;0.60;0.50;;;36.30;69.60;;;;;;5013497;28;20501;-48
2022/06/26 07:28:24;;;;;;;0.40;0.30;;;35.80;69.10;;;;;;5030340;28;20176;-53
2022/06/26 07:30:49;;;;;;;1.30;0.70;;;36.00;69.00;;;;;;5031549;28;20100;-51
2022/06/26 07:35:59;;;;;;;;;;;36.00;68.50;;;;;;5031763;28;20064;-50
2022/06/26 07:38:25;;;;;;;2.00;0.60;;;36.10;67.40;;;;;;5030503;28;19952;-50
2022/06/26 07:40:52;;;;;;;0.77;0.60;;;36.10;66.80;;;;;;5031202;28;20026;-50
2022/06/26 07:43:17;;;;;;;1.02;0.55;;;36.20;67.40;;;;;;5031190;28;20030;-51
2022/06/26 07:45:43;;;;;;;0.82;0.55;;;36.60;65.70;;;;;;5013236;28;20071;-52
2022/06/26 07:48:08;;;;;;;1.52;0.47;;;36.40;66.70;;;;;;5030468;28;20036;-48
2022/06/26 07:50:34;;;;;;;1.90;0.50;;;36.50;66.80;;;;;;5031359;28;20400;-52
2022/06/26 07:52:59;;;;;;;1.08;0.50;;;37.00;65.30;;;;;;5031246;28;20018;-50
2022/06/26 07:55:25;;;;;;;1.50;0.47;;;37.60;64.20;;;;;;5013325;28;20486;-51
2022/06/26 07:57:50;;;;;;;2.00;0.47;;;37.70;63.50;;;;;;5031115;28;20469;-51
2022/06/26 08:00:16;;;;;;;4.85;0.57;;;37.50;62.50;;;;;;5051279;28;20032;-52
2022/06/26 08:02:41;;;;;;;3.00;0.55;;;37.30;63.50;;;;;;5033160;28;20075;-52
2022/06/26 08:05:07;;;;;;;0.60;0.52;;;37.50;64.40;;;;;;5033065;28;20513;-50
2022/06/26 08:07:33;;;;;;;2.95;0.30;;;37.60;63.00;;;;;;5050226;28;20037;-49
2022/06/26 08:09:59;;;;;;;0.45;0.45;;;37.70;62.60;;;;;;5050970;28;20013;-48
2022/06/26 08:12:24;;;;;;;3.55;0.60;;;37.90;62.50;;;;;;5051097;28;20574;-53
2022/06/26 08:14:50;;;;;;;0.43;0.40;;;38.00;62.10;;;;;;5050672;28;20083;-51
2022/06/26 08:17:15;;;;;;;1.25;0.43;;;37.60;62.10;;;;;;5032583;28;20028;-51
2022/06/26 08:19:41;;;;;;;2.65;0.30;;;37.30;63.10;;;;;;5054410;28;20052;-52
2022/06/26 08:22:06;;;;;;;4.35;0.52;;;36.40;64.00;;;;;;5054480;28;20025;-55
2022/06/26 08:24:33;;;;;;;2.33;2.13;;;35.50;65.10;;;;;;5036527;28;20439;-49
2022/06/26 08:27:00;;;;;;;2.72;2.53;;;34.60;65.90;;;;;;5053395;28;20501;-51
2022/06/26 08:29:26;;;;;;;1.95;0.60;;;34.10;68.00;;;;;;5054456;28;20056;-54
2022/06/26 08:31:52;;;;;;;0.45;0.40;;;33.30;68.30;;;;;;5034755;28;20450;-48
2022/06/26 08:34:18;;;;;;;1.58;0.55;;;33.30;69.80;;;;;;5031700;28;20132;-49
2022/06/26 08:36:44;;;;;;;2.00;0.50;;;33.00;68.50;;;;;;5033812;28;20051;-52
2022/06/26 08:39:10;;;;;;;2.78;0.40;;;32.70;69.20;;;;;;5033794;28;20040;-50
2022/06/26 08:41:41;;;;;;;1.10;0.60;;;32.30;69.90;;;;;;5033751;28;20032;-50
2022/06/26 08:44:08;;;;;;;2.05;0.55;;;32.00;69.80;;;;;;5033759;28;20049;-52
2022/06/26 08:46:37;;;;;;;1.38;0.60;;;31.90;70.00;;;;;;5034856;28;20037;-54
2022/06/26 08:49:12;;;;;;;0.70;0.47;;;31.90;70.00;;;;;;5034693;28;20033;-52
2022/06/26 08:51:43;;;;;;;6.85;0.70;;;31.60;70.80;;;;;;5003819;28;20076;-52
2022/06/26 08:54:10;;;;;;;1.50;0.50;;;31.60;70.20;;;;;;5036531;28;20033;-49
2022/06/26 08:56:41;;;;;;;0.55;0.43;;;31.70;70.80;;;;;;5034708;28;20079;-52
2022/06/26 08:59:08;;;;;;;1.88;0.60;;;31.70;70.40;;;;;;5032125;28;20030;-48
2022/06/26 09:01:35;;;;;;;3.58;0.65;;;31.60;70.10;;;;;;5033853;28;20029;-53
2022/06/26 09:04:00;;;;;;;5.47;0.60;;;31.50;70.30;;;;;;5033465;28;20112;-50
2022/06/26 09:06:26;;;;;;;3.47;0.55;;;30.40;72.60;;;;;;5029526;28;20108;-51
2022/06/26 09:08:51;;;;;;;1.42;0.50;;;29.80;74.80;;;;;;5032234;28;20125;-50
2022/06/26 09:11:18;;;;;;;0.50;0.50;;;29.90;74.70;;;;;;5033190;28;20030;-54
2022/06/26 09:13:45;;;;;;;1.67;0.50;;;30.00;74.50;;;;;;5033749;28;20104;-51
2022/06/26 09:16:13;;;;;;;4.40;0.60;;;30.00;75.90;;;;;;5026842;28;20044;-51
2022/06/26 09:18:40;;;;;;;2.85;0.50;;;29.90;75.30;;;;;;5014323;28;20036;-52
2022/06/26 09:21:07;;;;;;;0.50;0.45;;;30.10;75.10;;;;;;5033466;28;20036;-53
2022/06/26 09:23:34;;;;;;;1.92;0.50;;;29.80;75.10;;;;;;5014540;28;20033;-51
2022/06/26 09:26:00;;;;;;;0.40;0.40;;;29.80;75.30;;;;;;5033173;28;20049;-55
2022/06/26 09:28:26;;;;;;;0.73;0.35;;;29.70;75.40;;;;;;5014317;28;20167;-53
2022/06/26 09:30:57;;;;;;;0.68;0.50;;;29.50;75.30;;;;;;5033458;28;20057;-52
2022/06/26 09:33:36;;;;;;;2.78;0.60;;;29.10;77.00;;;;;;5031545;28;20544;-50
2022/06/26 09:36:04;;;;;;;2.75;0.60;;;28.70;77.00;;;;;;5033318;28;20036;-53
2022/06/26 09:38:34;;;;;;;2.13;0.40;;;28.80;77.10;;;;;;5014564;28;20033;-50
2022/06/26 09:41:03;;;;;;;0.50;0.40;;;28.60;77.60;;;;;;5033183;28;20457;-51
2022/06/26 09:43:35;;;;;;;8.57;7.68;;;28.90;77.90;;;;;;5015156;28;20055;-50
2022/06/26 09:46:05;;;;;;;3.38;2.58;;;29.10;76.20;;;;;;5032780;28;20117;-53
2022/06/26 09:48:31;;;;;;;1.40;0.60;;;28.90;76.40;;;;;;5014407;28;20061;-47
2022/06/26 09:50:57;;;;;;;0.75;0.50;;;28.70;76.40;;;;;;5033301;28;20397;-54
2022/06/26 09:53:24;;;;;;;1.92;0.40;;;28.80;76.40;;;;;;5014375;28;20030;-53
2022/06/26 09:55:51;;;;;;;0.85;0.45;;;28.60;77.30;;;;;;5032322;28;20079;-52
2022/06/26 09:58:18;;;;;;;0.73;0.57;;;28.60;78.90;;;;;;5031129;28;20444;-51
2022/06/26 10:06:25;;;;;;;0.47;0.47;;;28.50;78.70;;;;;;5032361;28;20034;-48
2022/06/26 10:06:26;;;;;;;1.40;0.60;;;28.70;78.00;;;;;;5032523;28;20555;-50
2022/06/26 10:08:56;;;;;;;0.65;0.47;;;28.70;77.70;;;;;;5046872;28;20125;-51
2022/06/26 10:11:24;;;;;;;1.45;0.45;;;28.70;76.80;;;;;;5047407;28;20045;-47
2022/06/26 10:13:50;;;;;;;0.68;0.68;;;28.50;76.80;;;;;;5032426;28;20579;-49
2022/06/26 10:16:30;;;;;;;0.68;0.50;;;28.30;78.30;;;;;;5032419;28;20037;-50
2022/06/26 10:19:19;;;;;;;0.63;0.63;;;28.20;78.70;;;;;;5031657;28;20117;-50
2022/06/26 10:21:46;;;;;;;0.50;0.50;;;28.10;78.90;;;;;;5029730;28;20025;-51
2022/06/26 10:24:12;;;;;;;3.30;0.45;;;28.10;78.60;;;;;;5031243;28;20029;-49
2022/06/26 10:26:37;;;;;;;0.50;0.45;;;28.10;80.10;;;;;;5029759;28;20515;-50
2022/06/26 10:29:08;;;;;;;0.35;0.35;;;28.10;79.20;;;;;;5029465;28;20088;-51
2022/06/26 10:31:43;;;;;;;35.35;27.80;;;28.20;78.70;;;;;;5028276;28;20030;-51
2022/06/26 10:34:13;;;;;;;6.43;5.78;;;28.20;77.70;;;;;;5028905;28;20511;-49
2022/06/26 10:36:39;;;;;;;1.33;0.80;;;28.10;77.80;;;;;;5029164;28;20029;-52
2022/06/26 10:39:06;;;;;;;0.40;0.40;;;28.10;78.70;;;;;;5029012;28;20108;-50
2022/06/26 10:44:48;;;;;;;0.68;0.40;;;28.10;80.00;;;;;;5023469;28;20405;-48
2022/06/26 10:47:17;;;;;;;0.57;0.50;;;28.10;79.20;;;;;;5026232;28;20044;-50
2022/06/26 10:49:50;;;;;;;0.40;0.40;;;28.10;79.40;;;;;;5021162;28;20025;-49
2022/06/26 10:52:27;;;;;;;1.55;0.75;;;28.00;79.30;;;;;;5032192;28;20113;-51
2022/06/26 10:54:54;;;;;;;0.45;0.40;;;28.00;77.50;;;;;;5031182;28;20505;-52
2022/06/26 10:57:32;;;;;;;0.75;0.63;;;27.80;78.80;;;;;;5012685;28;20458;-56
2022/06/26 10:59:59;;;;;;;0.55;0.55;;;27.80;79.00;;;;;;4998288;28;20034;-56
2022/06/26 11:02:32;;;;;;;1.25;0.40;;;27.80;79.10;;;;;;5027673;28;20021;-53
2022/06/26 11:04:58;;;;;;;0.50;0.50;;;27.80;78.50;;;;;;5031873;28;20034;-52
2022/06/26 11:07:24;;;;;;;4.65;0.57;;;27.80;79.40;;;;;;5013306;28;20028;-55
2022/06/26 11:09:50;;;;;;;0.40;0.40;;;27.90;79.70;;;;;;5031757;28;20525;-52
2022/06/26 11:12:15;;;;;;;0.70;0.70;;;27.90;79.90;;;;;;5013749;28;20030;-52
2022/06/26 11:14:41;;;;;;;0.50;0.50;;;28.00;79.20;;;;;;5013766;28;20028;-56
2022/06/26 11:17:07;;;;;;;1.38;0.70;;;28.00;77.90;;;;;;5030592;28;20033;-56
2022/06/26 11:20:46;;;;;;;0.60;0.60;;;28.10;79.80;;;;;;5027358;28;20060;-53
2022/06/26 11:22:27;;;;;;;1.13;0.40;;;28.20;77.90;;;;;;5031228;28;20033;-56
2022/06/26 11:24:55;;;;;;;0.43;0.43;;;28.10;76.30;;;;;;5031798;28;20025;-53
2022/06/26 11:27:22;;;;;;;1.85;0.55;;;28.00;76.70;;;;;;5013560;28;20030;-53
2022/06/26 11:29:47;;;;;;;0.40;0.40;;;28.00;77.10;;;;;;5015950;28;20056;-51
2022/06/26 11:32:14;;;;;;;0.45;0.40;;;28.20;78.40;;;;;;5029938;28;20096;-51
2022/06/26 11:34:53;;;;;;;0.50;0.50;;;28.10;76.10;;;;;;5031791;28;20175;-50
2022/06/26 11:37:36;;;;;;;0.50;0.50;;;28.20;76.70;;;;;;5012831;28;20374;-48
2022/06/26 11:40:14;;;;;;;0.57;0.40;;;28.40;76.60;;;;;;5014127;28;20473;-49
2022/06/26 11:42:40;;;;;;;1.85;0.38;;;28.40;77.90;;;;;;5031594;28;20126;-50
2022/06/26 11:45:06;;;;;;;0.30;0.30;;;28.30;77.20;;;;;;5031623;28;20029;-53
2022/06/26 11:47:34;;;;;;;0.38;0.38;;;28.30;76.70;;;;;;5030491;28;20076;-54
2022/06/26 11:50:00;;;;;;;0.52;0.40;;;28.40;76.40;;;;;;5031561;28;20021;-50
2022/06/26 11:52:25;;;;;;;1.13;0.50;;;28.30;77.00;;;;;;5033061;28;20056;-57
2022/06/26 11:55:00;;;;;;;0.63;0.60;;;28.30;76.60;;;;;;5035358;28;20092;-51
2022/06/26 11:57:25;;;;;;;6.07;0.50;;;28.40;76.40;;;;;;5034362;28;20429;-51
2022/06/26 11:59:51;;;;;;;0.45;0.45;;;28.20;76.50;;;;;;5035202;28;20029;-52
2022/06/26 12:02:24;;;;;;;0.32;0.30;;;28.30;75.90;;;;;;5034986;28;20029;-49
2022/06/26 12:05:01;;;;;;;0.50;0.50;;;28.30;77.90;;;;;;5035023;28;20033;-52
2022/06/26 12:07:38;;;;;;;2.92;0.98;;;28.40;76.10;;;;;;5031876;28;20524;-50
2022/06/26 12:10:04;;;;;;;0.68;0.68;;;28.30;76.50;;;;;;5015066;28;20076;-58
2022/06/26 12:12:29;;;;;;;0.55;0.55;;;28.10;77.60;;;;;;5021593;28;20029;-50
2022/06/26 12:14:55;;;;;;;0.70;0.70;;;28.10;78.70;;;;;;5035061;28;20026;-53
2022/06/26 12:17:25;;;;;;;0.45;0.45;;;28.10;80.60;;;;;;5033810;28;20097;-49
2022/06/26 12:19:51;;;;;;;0.95;0.50;;;28.00;77.10;;;;;;5034756;28;20366;-50
2022/06/26 12:22:27;;;;;;;0.50;0.50;;;27.90;78.20;;;;;;5034421;28;20180;-49
2022/06/26 12:24:55;;;;;;;0.50;0.40;;;27.90;78.20;;;;;;5028313;28;20079;-51
2022/06/26 12:27:31;;;;;;;0.68;0.60;;;28.00;77.50;;;;;;5033591;28;20034;-50
2022/06/26 12:29:57;;;;;;;2.60;0.47;;;28.10;78.20;;;;;;5034140;28;20025;-48
2022/06/26 12:32:22;;;;;;;2.80;0.50;;;28.20;77.80;;;;;;5033848;28;20026;-48
2022/06/26 12:34:48;;;;;;;0.50;0.50;;;28.00;78.80;;;;;;5034156;28;20053;-52
2022/06/26 12:37:13;;;;;;;1.05;0.60;;;28.00;78.90;;;;;;5020830;28;20083;-58
2022/06/26 12:39:39;;;;;;;0.40;0.40;;;28.10;80.00;;;;;;5031228;28;20108;-56
2022/06/26 12:42:05;;;;;;;1.52;0.60;;;28.00;78.80;;;;;;5032906;28;20517;-58
2022/06/26 12:44:30;;;;;;;1.67;0.68;;;28.00;79.80;;;;;;5033487;28;20722;-56
2022/06/26 12:49:27;;;;;;;1.08;0.73;;;28.00;77.80;;;;;;5051663;23;20099;-54
2022/06/26 12:51:52;;;;;;;2.33;0.50;;;27.90;79.40;;;;;;5017316;28;20089;-53
2022/06/26 12:54:18;;;;;;;2.15;0.70;;;27.90;79.50;;;;;;5026233;28;20022;-53
2022/06/26 12:56:43;;;;;;;1.17;0.82;;;27.90;78.20;;;;;;5033255;28;20033;-52
2022/06/26 12:59:09;;;;;;;1.65;0.45;;;28.10;78.20;;;;;;5017239;28;20065;-47
2022/06/26 13:01:35;;;;;;;0.70;0.70;;;28.10;79.00;;;;;;5032580;28;20045;-54